sensor_id;sensor_type;location;lat;lon;timestamp;P1;P2;P0
65556;PMS3003;52200;53.490;14.376;2023-12-22T00:01:31;10.80;9.60;1.00
65556;PMS3003;52200;53.490;14.376;2023-12-22T00:03:56;15.75;11.50;1.25
65556;PMS3003;52200;53.490;14.376;2023-12-22T00:06:22;16.50;12.50;2.00
65556;PMS3003;52200;53.490;14.376;2023-12-22T00:08:47;14.50;9.00;1.00
65556;PMS3003;52200;53.490;14.376;2023-12-22T00:11:13;16.75;11.75;3.50
65556;PMS3003;52200;53.490;14.376;2023-12-22T00:13:38;14.50;9.50;1.25
65556;PMS3003;52200;53.490;14.376;2023-12-22T00:16:04;12.25;10.75;1.00
65556;PMS3003;52200;53.490;14.376;2023-12-22T00:18:29;10.25;9.00;2.00
65556;PMS3003;52200;53.490;14.376;2023-12-22T00:20:56;16.00;12.40;2.80
65556;PMS3003;52200;53.490;14.376;2023-12-22T00:23:21;12.25;9.75;1.00
65556;PMS3003;52200;53.490;14.376;2023-12-22T00:25:46;19.50;13.00;2.00
65556;PMS3003;52200;53.490;14.376;2023-12-22T00:28:12;17.50;10.50;1.25
65556;PMS3003;52200;53.490;14.376;2023-12-22T00:30:37;16.50;12.25;1.75
65556;PMS3003;52200;53.490;14.376;2023-12-22T00:33:03;16.25;8.75;1.00
65556;PMS3003;52200;53.490;14.376;2023-12-22T00:35:28;18.00;9.50;1.50
65556;PMS3003;52200;53.490;14.376;2023-12-22T00:37:54;19.00;9.25;2.00
65556;PMS3003;52200;53.490;14.376;2023-12-22T00:40:19;19.25;7.50;1.50
65556;PMS3003;52200;53.490;14.376;2023-12-22T00:42:45;11.25;8.00;1.00
65556;PMS3003;52200;53.490;14.376;2023-12-22T00:45:10;16.50;7.50;0.75
65556;PMS3003;52200;53.490;14.376;2023-12-22T00:47:36;10.00;8.25;0.50
65556;PMS3003;52200;53.490;14.376;2023-12-22T00:50:02;9.25;8.25;1.00
65556;PMS3003;52200;53.490;14.376;2023-12-22T00:52:29;9.60;8.40;1.00
65556;PMS3003;52200;53.490;14.376;2023-12-22T00:54:55;11.20;7.00;1.40
65556;PMS3003;52200;53.490;14.376;2023-12-22T00:57:20;13.75;9.50;1.00
65556;PMS3003;52200;53.490;14.376;2023-12-22T00:59:46;10.50;5.75;0.50
65556;PMS3003;52200;53.490;14.376;2023-12-22T01:02:16;17.40;11.20;1.00
65556;PMS3003;52200;53.490;14.376;2023-12-22T01:04:42;6.60;6.00;1.00
65556;PMS3003;52200;53.490;14.376;2023-12-22T01:07:08;9.60;7.40;1.00
65556;PMS3003;52200;53.490;14.376;2023-12-22T01:09:35;9.00;7.60;1.00
65556;PMS3003;52200;53.490;14.376;2023-12-22T01:12:01;9.80;6.20;0.00
65556;PMS3003;52200;53.490;14.376;2023-12-22T01:14:31;10.80;7.20;1.00
65556;PMS3003;52200;53.490;14.376;2023-12-22T01:16:56;12.50;9.50;1.00
65556;PMS3003;52200;53.490;14.376;2023-12-22T01:19:24;12.60;9.20;1.00
65556;PMS3003;52200;53.490;14.376;2023-12-22T01:21:49;13.25;6.75;1.00
65556;PMS3003;52200;53.490;14.376;2023-12-22T01:24:15;10.75;5.25;1.00
65556;PMS3003;52200;53.490;14.376;2023-12-22T01:26:40;8.25;5.75;0.00
65556;PMS3003;52200;53.490;14.376;2023-12-22T01:29:06;13.00;8.75;0.00
65556;PMS3003;52200;53.490;14.376;2023-12-22T01:31:31;16.00;5.00;0.00
65556;PMS3003;52200;53.490;14.376;2023-12-22T01:33:56;13.50;7.75;0.50
65556;PMS3003;52200;53.490;14.376;2023-12-22T01:36:22;17.25;6.75;1.00
65556;PMS3003;52200;53.490;14.376;2023-12-22T01:38:47;8.75;4.00;0.25
65556;PMS3003;52200;53.490;14.376;2023-12-22T01:41:13;10.00;5.25;1.00
65556;PMS3003;52200;53.490;14.376;2023-12-22T01:43:39;13.00;9.20;1.40
65556;PMS3003;52200;53.490;14.376;2023-12-22T01:46:04;10.75;4.00;1.00
65556;PMS3003;52200;53.490;14.376;2023-12-22T01:48:32;10.40;5.00;0.60
65556;PMS3003;52200;53.490;14.376;2023-12-22T01:50:58;10.20;3.80;0.00
65556;PMS3003;52200;53.490;14.376;2023-12-22T01:53:26;16.00;5.80;0.80
65556;PMS3003;52200;53.490;14.376;2023-12-22T01:55:52;9.80;5.20;0.00
65556;PMS3003;52200;53.490;14.376;2023-12-22T01:58:19;9.20;7.20;0.00
65556;PMS3003;52200;53.490;14.376;2023-12-22T02:00:47;12.60;5.20;1.00
65556;PMS3003;52200;53.490;14.376;2023-12-22T02:03:12;13.00;4.50;1.00
65556;PMS3003;52200;53.490;14.376;2023-12-22T02:05:40;8.80;5.00;1.00
65556;PMS3003;52200;53.490;14.376;2023-12-22T02:08:06;13.20;5.60;1.00
65556;PMS3003;52200;53.490;14.376;2023-12-22T02:10:32;16.75;7.75;1.50
65556;PMS3003;52200;53.490;14.376;2023-12-22T02:12:57;11.00;5.50;1.00
65556;PMS3003;52200;53.490;14.376;2023-12-22T02:15:22;9.50;4.25;0.00
65556;PMS3003;52200;53.490;14.376;2023-12-22T02:17:49;14.75;5.00;0.00
65556;PMS3003;52200;53.490;14.376;2023-12-22T02:20:31;13.60;5.00;0.00
65556;PMS3003;52200;53.490;14.376;2023-12-22T02:22:57;10.60;7.60;0.80
65556;PMS3003;52200;53.490;14.376;2023-12-22T02:25:23;8.75;7.50;0.25
65556;PMS3003;52200;53.490;14.376;2023-12-22T02:27:49;13.20;4.60;1.00
65556;PMS3003;52200;53.490;14.376;2023-12-22T02:30:25;13.00;6.00;1.00
65556;PMS3003;52200;53.490;14.376;2023-12-22T02:33:11;14.00;5.00;1.00
65556;PMS3003;52200;53.490;14.376;2023-12-22T02:35:40;16.60;5.00;0.00
65556;PMS3003;52200;53.490;14.376;2023-12-22T02:38:07;8.00;4.80;0.20
65556;PMS3003;52200;53.490;14.376;2023-12-22T02:40:34;15.20;9.20;1.00
65556;PMS3003;52200;53.490;14.376;2023-12-22T02:43:01;9.60;5.00;1.00
65556;PMS3003;52200;53.490;14.376;2023-12-22T02:45:27;12.20;4.80;1.00
65556;PMS3003;52200;53.490;14.376;2023-12-22T02:47:54;12.80;5.00;0.20
65556;PMS3003;52200;53.490;14.376;2023-12-22T02:50:19;10.75;3.00;0.00
65556;PMS3003;52200;53.490;14.376;2023-12-22T02:52:45;13.25;4.50;0.25
65556;PMS3003;52200;53.490;14.376;2023-12-22T02:55:10;10.00;3.50;1.00
65556;PMS3003;52200;53.490;14.376;2023-12-22T02:57:35;15.75;5.00;0.00
65556;PMS3003;52200;53.490;14.376;2023-12-22T03:00:01;10.75;4.25;0.50
65556;PMS3003;52200;53.490;14.376;2023-12-22T03:02:27;11.60;5.80;1.40
65556;PMS3003;52200;53.490;14.376;2023-12-22T03:04:52;15.50;6.00;0.25
65556;PMS3003;52200;53.490;14.376;2023-12-22T03:07:18;9.50;3.50;0.50
65556;PMS3003;52200;53.490;14.376;2023-12-22T03:09:43;10.00;2.00;0.00
65556;PMS3003;52200;53.490;14.376;2023-12-22T03:12:09;15.25;6.00;2.00
65556;PMS3003;52200;53.490;14.376;2023-12-22T03:14:35;15.80;8.20;1.80
65556;PMS3003;52200;53.490;14.376;2023-12-22T03:17:01;10.20;6.00;0.80
65556;PMS3003;52200;53.490;14.376;2023-12-22T03:19:31;9.60;3.80;0.60
65556;PMS3003;52200;53.490;14.376;2023-12-22T03:21:57;12.60;5.20;1.00
65556;PMS3003;52200;53.490;14.376;2023-12-22T03:24:23;13.50;5.00;1.00
65556;PMS3003;52200;53.490;14.376;2023-12-22T03:26:49;16.40;9.00;1.00
65556;PMS3003;52200;53.490;14.376;2023-12-22T03:29:15;11.40;5.60;1.00
65556;PMS3003;52200;53.490;14.376;2023-12-22T03:31:42;12.00;6.40;2.00
65556;PMS3003;52200;53.490;14.376;2023-12-22T03:34:07;10.00;3.50;0.00
65556;PMS3003;52200;53.490;14.376;2023-12-22T03:36:33;9.50;4.00;0.75
65556;PMS3003;52200;53.490;14.376;2023-12-22T03:38:58;14.00;4.00;1.00
65556;PMS3003;52200;53.490;14.376;2023-12-22T03:41:24;8.50;3.00;0.00
65556;PMS3003;52200;53.490;14.376;2023-12-22T03:43:49;12.00;3.50;0.00
65556;PMS3003;52200;53.490;14.376;2023-12-22T03:46:15;8.75;1.25;0.00
65556;PMS3003;52200;53.490;14.376;2023-12-22T03:48:40;12.25;2.00;0.00
65556;PMS3003;52200;53.490;14.376;2023-12-22T03:51:06;8.25;2.00;0.00
65556;PMS3003;52200;53.490;14.376;2023-12-22T03:53:31;13.00;3.00;1.00
65556;PMS3003;52200;53.490;14.376;2023-12-22T03:55:56;6.50;2.00;0.00
65556;PMS3003;52200;53.490;14.376;2023-12-22T03:58:22;5.75;2.00;0.00
65556;PMS3003;52200;53.490;14.376;2023-12-22T04:00:47;9.25;4.50;1.00
65556;PMS3003;52200;53.490;14.376;2023-12-22T04:03:13;8.75;2.00;0.25
65556;PMS3003;52200;53.490;14.376;2023-12-22T04:05:39;8.40;3.60;0.00
65556;PMS3003;52200;53.490;14.376;2023-12-22T04:08:05;8.75;3.25;0.00
65556;PMS3003;52200;53.490;14.376;2023-12-22T04:10:31;8.80;2.60;0.00
65556;PMS3003;52200;53.490;14.376;2023-12-22T04:12:56;11.00;4.25;0.00
65556;PMS3003;52200;53.490;14.376;2023-12-22T04:15:22;8.50;2.00;0.25
65556;PMS3003;52200;53.490;14.376;2023-12-22T04:17:48;5.00;1.25;0.00
65556;PMS3003;52200;53.490;14.376;2023-12-22T04:20:14;10.00;1.60;0.00
65556;PMS3003;52200;53.490;14.376;2023-12-22T04:22:40;12.25;3.50;0.00
65556;PMS3003;52200;53.490;14.376;2023-12-22T04:25:05;11.75;4.50;0.00
65556;PMS3003;52200;53.490;14.376;2023-12-22T04:27:32;9.40;2.40;0.00
65556;PMS3003;52200;53.490;14.376;2023-12-22T04:29:58;8.80;3.60;0.00
65556;PMS3003;52200;53.490;14.376;2023-12-22T04:32:23;7.00;1.00;0.00
65556;PMS3003;52200;53.490;14.376;2023-12-22T04:34:49;8.75;3.50;1.00
65556;PMS3003;52200;53.490;14.376;2023-12-22T04:37:14;8.75;3.50;0.00
65556;PMS3003;52200;53.490;14.376;2023-12-22T04:39:40;8.00;2.50;0.00
65556;PMS3003;52200;53.490;14.376;2023-12-22T04:42:05;16.25;5.25;0.00
65556;PMS3003;52200;53.490;14.376;2023-12-22T04:44:31;10.25;3.25;0.00
65556;PMS3003;52200;53.490;14.376;2023-12-22T04:46:56;8.00;3.00;0.00
65556;PMS3003;52200;53.490;14.376;2023-12-22T04:49:21;8.25;3.50;0.00
65556;PMS3003;52200;53.490;14.376;2023-12-22T04:51:47;7.50;2.00;0.00
65556;PMS3003;52200;53.490;14.376;2023-12-22T04:54:12;9.00;4.75;0.25
65556;PMS3003;52200;53.490;14.376;2023-12-22T04:56:38;5.75;2.00;0.00
65556;PMS3003;52200;53.490;14.376;2023-12-22T04:59:03;8.50;1.50;0.00
65556;PMS3003;52200;53.490;14.376;2023-12-22T05:01:28;5.00;0.75;0.00
65556;PMS3003;52200;53.490;14.376;2023-12-22T05:03:54;5.25;1.00;0.00
65556;PMS3003;52200;53.490;14.376;2023-12-22T05:06:19;5.50;1.25;0.00
65556;PMS3003;52200;53.490;14.376;2023-12-22T05:08:45;8.00;0.00;0.00
65556;PMS3003;52200;53.490;14.376;2023-12-22T05:11:11;7.00;4.00;0.00
65556;PMS3003;52200;53.490;14.376;2023-12-22T05:13:37;7.25;1.00;0.00
65556;PMS3003;52200;53.490;14.376;2023-12-22T05:16:02;5.00;0.00;0.00
65556;PMS3003;52200;53.490;14.376;2023-12-22T05:18:29;7.00;4.80;0.00
65556;PMS3003;52200;53.490;14.376;2023-12-22T05:20:55;5.25;3.25;0.00
65556;PMS3003;52200;53.490;14.376;2023-12-22T05:23:20;5.25;3.00;0.00
65556;PMS3003;52200;53.490;14.376;2023-12-22T05:25:46;7.75;3.00;0.00
65556;PMS3003;52200;53.490;14.376;2023-12-22T05:28:11;8.50;4.50;0.00
65556;PMS3003;52200;53.490;14.376;2023-12-22T05:30:37;7.75;5.00;0.00
65556;PMS3003;52200;53.490;14.376;2023-12-22T05:33:02;4.50;4.50;0.00
65556;PMS3003;52200;53.490;14.376;2023-12-22T05:35:28;8.00;6.50;0.00
65556;PMS3003;52200;53.490;14.376;2023-12-22T05:37:53;10.00;8.00;0.00
65556;PMS3003;52200;53.490;14.376;2023-12-22T05:40:19;8.50;7.00;0.00
65556;PMS3003;52200;53.490;14.376;2023-12-22T05:42:44;8.00;5.50;0.00
65556;PMS3003;52200;53.490;14.376;2023-12-22T05:45:09;15.00;10.25;0.50
65556;PMS3003;52200;53.490;14.376;2023-12-22T05:47:36;8.00;5.00;0.00
65556;PMS3003;52200;53.490;14.376;2023-12-22T05:50:02;11.20;8.00;0.00
65556;PMS3003;52200;53.490;14.376;2023-12-22T05:52:28;7.00;5.00;0.00
65556;PMS3003;52200;53.490;14.376;2023-12-22T05:54:54;7.00;6.00;0.00
65556;PMS3003;52200;53.490;14.376;2023-12-22T05:57:19;4.75;4.25;0.00
65556;PMS3003;52200;53.490;14.376;2023-12-22T05:59:45;3.50;3.50;0.00
65556;PMS3003;52200;53.490;14.376;2023-12-22T06:02:10;7.00;5.50;0.00
65556;PMS3003;52200;53.490;14.376;2023-12-22T06:04:36;7.00;6.50;0.00
65556;PMS3003;52200;53.490;14.376;2023-12-22T06:07:01;7.00;4.25;0.00
65556;PMS3003;52200;53.490;14.376;2023-12-22T06:09:27;5.00;5.00;0.00
65556;PMS3003;52200;53.490;14.376;2023-12-22T06:11:53;7.75;5.00;0.75
65556;PMS3003;52200;53.490;14.376;2023-12-22T06:14:19;7.25;5.00;0.00
65556;PMS3003;52200;53.490;14.376;2023-12-22T06:16:44;5.00;4.00;0.00
65556;PMS3003;52200;53.490;14.376;2023-12-22T06:19:09;7.50;5.50;0.00
65556;PMS3003;52200;53.490;14.376;2023-12-22T06:21:37;11.50;7.00;0.00
65556;PMS3003;52200;53.490;14.376;2023-12-22T06:24:03;8.60;4.80;0.00
65556;PMS3003;52200;53.490;14.376;2023-12-22T06:26:29;6.75;5.00;0.00
65556;PMS3003;52200;53.490;14.376;2023-12-22T06:28:54;4.00;2.00;0.00
65556;PMS3003;52200;53.490;14.376;2023-12-22T06:31:20;2.50;2.50;0.00
65556;PMS3003;52200;53.490;14.376;2023-12-22T06:33:49;4.00;2.00;0.00
65556;PMS3003;52200;53.490;14.376;2023-12-22T06:36:21;4.00;4.00;0.00
65556;PMS3003;52200;53.490;14.376;2023-12-22T06:38:47;8.40;4.40;0.00
65556;PMS3003;52200;53.490;14.376;2023-12-22T06:41:26;7.40;4.00;0.00
65556;PMS3003;52200;53.490;14.376;2023-12-22T06:43:54;7.60;2.80;0.00
65556;PMS3003;52200;53.490;14.376;2023-12-22T06:46:21;6.00;5.80;0.00
65556;PMS3003;52200;53.490;14.376;2023-12-22T06:48:47;8.80;4.80;0.40
65556;PMS3003;52200;53.490;14.376;2023-12-22T06:51:20;6.60;4.60;0.00
65556;PMS3003;52200;53.490;14.376;2023-12-22T06:53:47;8.60;5.00;0.00
65556;PMS3003;52200;53.490;14.376;2023-12-22T06:56:20;7.00;7.00;0.00
65556;PMS3003;52200;53.490;14.376;2023-12-22T06:58:47;5.20;4.20;0.00
65556;PMS3003;52200;53.490;14.376;2023-12-22T07:01:27;7.80;5.60;0.00
65556;PMS3003;52200;53.490;14.376;2023-12-22T07:03:54;7.20;4.60;0.00
65556;PMS3003;52200;53.490;14.376;2023-12-22T07:06:20;6.40;5.40;0.00
65556;PMS3003;52200;53.490;14.376;2023-12-22T07:08:57;5.40;5.20;0.00
65556;PMS3003;52200;53.490;14.376;2023-12-22T07:11:28;2.80;2.80;0.00
65556;PMS3003;52200;53.490;14.376;2023-12-22T07:13:54;4.00;4.00;0.00
65556;PMS3003;52200;53.490;14.376;2023-12-22T07:16:19;6.75;5.00;0.00
65556;PMS3003;52200;53.490;14.376;2023-12-22T07:18:45;5.00;4.00;0.00
65556;PMS3003;52200;53.490;14.376;2023-12-22T07:21:15;9.00;5.00;0.00
65556;PMS3003;52200;53.490;14.376;2023-12-22T07:23:41;8.80;5.00;0.00
65556;PMS3003;52200;53.490;14.376;2023-12-22T07:26:09;6.80;3.20;0.00
65556;PMS3003;52200;53.490;14.376;2023-12-22T07:28:34;7.25;4.50;0.00
65556;PMS3003;52200;53.490;14.376;2023-12-22T07:31:00;4.75;2.50;0.00
65556;PMS3003;52200;53.490;14.376;2023-12-22T07:33:25;6.25;3.00;0.00
65556;PMS3003;52200;53.490;14.376;2023-12-22T07:35:51;6.25;4.75;0.00
65556;PMS3003;52200;53.490;14.376;2023-12-22T07:38:16;7.75;4.00;0.00
65556;PMS3003;52200;53.490;14.376;2023-12-22T07:40:41;8.25;5.00;0.00
65556;PMS3003;52200;53.490;14.376;2023-12-22T07:43:07;8.25;3.00;0.00
65556;PMS3003;52200;53.490;14.376;2023-12-22T07:45:33;7.60;5.60;0.60
65556;PMS3003;52200;53.490;14.376;2023-12-22T07:47:59;8.00;6.75;0.00
65556;PMS3003;52200;53.490;14.376;2023-12-22T07:50:25;9.75;6.00;1.00
65556;PMS3003;52200;53.490;14.376;2023-12-22T07:52:50;14.75;7.50;0.00
65556;PMS3003;52200;53.490;14.376;2023-12-22T07:55:16;7.50;5.50;0.00
65556;PMS3003;52200;53.490;14.376;2023-12-22T07:57:41;9.00;6.00;0.00
65556;PMS3003;52200;53.490;14.376;2023-12-22T08:00:06;7.50;6.00;0.75
65556;PMS3003;52200;53.490;14.376;2023-12-22T08:02:34;9.00;6.00;1.00
65556;PMS3003;52200;53.490;14.376;2023-12-22T08:04:59;12.25;7.50;0.50
65556;PMS3003;52200;53.490;14.376;2023-12-22T08:07:25;14.25;11.00;2.00
65556;PMS3003;52200;53.490;14.376;2023-12-22T08:09:50;23.50;15.00;4.50
65556;PMS3003;52200;53.490;14.376;2023-12-22T08:12:16;22.25;20.25;4.50
65556;PMS3003;52200;53.490;14.376;2023-12-22T08:14:41;11.75;9.25;1.00
65556;PMS3003;52200;53.490;14.376;2023-12-22T08:17:07;20.50;17.75;4.25
65556;PMS3003;52200;53.490;14.376;2023-12-22T08:19:32;13.50;10.50;1.00
65556;PMS3003;52200;53.490;14.376;2023-12-22T08:21:58;25.75;19.75;5.25
65556;PMS3003;52200;53.490;14.376;2023-12-22T08:24:23;19.00;18.20;5.00
65556;PMS3003;52200;53.490;14.376;2023-12-22T08:26:49;26.50;19.25;5.00
65556;PMS3003;52200;53.490;14.376;2023-12-22T08:29:15;16.60;15.60;4.40
65556;PMS3003;52200;53.490;14.376;2023-12-22T08:31:41;21.50;18.75;6.00
65556;PMS3003;52200;53.490;14.376;2023-12-22T08:34:06;12.25;11.25;3.50
65556;PMS3003;52200;53.490;14.376;2023-12-22T08:36:32;8.25;8.00;1.00
65556;PMS3003;52200;53.490;14.376;2023-12-22T08:38:57;10.25;8.25;1.00
65556;PMS3003;52200;53.490;14.376;2023-12-22T08:41:23;8.75;7.75;1.00
65556;PMS3003;52200;53.490;14.376;2023-12-22T08:43:49;9.40;7.60;1.40
65556;PMS3003;52200;53.490;14.376;2023-12-22T08:46:15;5.25;4.75;0.00
65556;PMS3003;52200;53.490;14.376;2023-12-22T08:48:40;9.75;7.25;0.00
65556;PMS3003;52200;53.490;14.376;2023-12-22T08:51:06;13.25;11.25;2.00
65556;PMS3003;52200;53.490;14.376;2023-12-22T08:53:32;13.75;9.00;1.50
65556;PMS3003;52200;53.490;14.376;2023-12-22T08:56:01;9.80;6.80;1.00
65556;PMS3003;52200;53.490;14.376;2023-12-22T08:58:27;10.00;6.50;1.00
65556;PMS3003;52200;53.490;14.376;2023-12-22T09:00:52;9.50;6.00;0.00
65556;PMS3003;52200;53.490;14.376;2023-12-22T09:03:17;9.00;6.75;0.00
65556;PMS3003;52200;53.490;14.376;2023-12-22T09:05:43;9.50;3.00;0.00
65556;PMS3003;52200;53.490;14.376;2023-12-22T09:08:08;9.50;5.25;0.00
65556;PMS3003;52200;53.490;14.376;2023-12-22T09:10:34;8.20;5.00;0.00
65556;PMS3003;52200;53.490;14.376;2023-12-22T09:13:00;8.80;6.80;1.40
65556;PMS3003;52200;53.490;14.376;2023-12-22T09:15:26;4.40;4.40;0.00
65556;PMS3003;52200;53.490;14.376;2023-12-22T09:17:52;12.60;10.60;2.80
65556;PMS3003;52200;53.490;14.376;2023-12-22T09:20:19;8.00;5.80;1.00
65556;PMS3003;52200;53.490;14.376;2023-12-22T09:22:44;9.75;5.50;0.00
65556;PMS3003;52200;53.490;14.376;2023-12-22T09:25:10;9.50;8.25;1.00
65556;PMS3003;52200;53.490;14.376;2023-12-22T09:27:35;9.25;7.25;0.00
65556;PMS3003;52200;53.490;14.376;2023-12-22T09:30:01;8.50;6.00;1.00
65556;PMS3003;52200;53.490;14.376;2023-12-22T09:32:27;5.40;4.60;0.00
65556;PMS3003;52200;53.490;14.376;2023-12-22T09:34:53;5.25;4.75;0.00
65556;PMS3003;52200;53.490;14.376;2023-12-22T09:37:20;11.20;6.60;0.00
65556;PMS3003;52200;53.490;14.376;2023-12-22T09:39:45;9.00;4.75;0.00
65556;PMS3003;52200;53.490;14.376;2023-12-22T09:42:11;8.20;6.80;1.00
65556;PMS3003;52200;53.490;14.376;2023-12-22T09:44:36;8.75;6.50;0.00
65556;PMS3003;52200;53.490;14.376;2023-12-22T09:47:04;7.60;5.00;0.00
65556;PMS3003;52200;53.490;14.376;2023-12-22T09:49:31;6.00;4.60;0.00
65556;PMS3003;52200;53.490;14.376;2023-12-22T09:51:58;8.20;3.80;0.20
65556;PMS3003;52200;53.490;14.376;2023-12-22T09:54:28;10.00;4.80;0.80
65556;PMS3003;52200;53.490;14.376;2023-12-22T09:56:55;6.80;3.80;0.00
65556;PMS3003;52200;53.490;14.376;2023-12-22T09:59:22;9.20;6.00;0.40
65556;PMS3003;52200;53.490;14.376;2023-12-22T10:01:49;10.00;5.40;1.00
65556;PMS3003;52200;53.490;14.376;2023-12-22T10:04:17;6.80;5.00;0.00
65556;PMS3003;52200;53.490;14.376;2023-12-22T10:06:43;11.75;8.00;0.50
65556;PMS3003;52200;53.490;14.376;2023-12-22T10:09:12;10.20;5.40;1.00
65556;PMS3003;52200;53.490;14.376;2023-12-22T10:11:39;10.80;5.00;1.00
65556;PMS3003;52200;53.490;14.376;2023-12-22T10:14:08;14.40;4.80;1.00
65556;PMS3003;52200;53.490;14.376;2023-12-22T10:16:35;10.60;5.60;1.00
65556;PMS3003;52200;53.490;14.376;2023-12-22T10:19:02;15.40;11.80;1.40
65556;PMS3003;52200;53.490;14.376;2023-12-22T10:21:28;10.00;6.40;1.00
65556;PMS3003;52200;53.490;14.376;2023-12-22T10:23:56;10.00;5.00;1.00
65556;PMS3003;52200;53.490;14.376;2023-12-22T10:26:22;13.60;9.00;2.00
65556;PMS3003;52200;53.490;14.376;2023-12-22T10:28:47;11.25;3.00;0.25
65556;PMS3003;52200;53.490;14.376;2023-12-22T10:31:16;17.60;12.40;2.80
65556;PMS3003;52200;53.490;14.376;2023-12-22T10:33:45;17.00;7.60;1.60
65556;PMS3003;52200;53.490;14.376;2023-12-22T10:36:10;7.20;2.20;1.00
65556;PMS3003;52200;53.490;14.376;2023-12-22T10:38:36;12.50;5.25;0.00
65556;PMS3003;52200;53.490;14.376;2023-12-22T10:41:05;8.60;4.60;0.00
65556;PMS3003;52200;53.490;14.376;2023-12-22T10:43:39;8.00;5.80;0.00
65556;PMS3003;52200;53.490;14.376;2023-12-22T10:46:05;9.20;5.40;0.80
65556;PMS3003;52200;53.490;14.376;2023-12-22T10:48:36;10.00;5.60;0.00
65556;PMS3003;52200;53.490;14.376;2023-12-22T10:51:01;9.50;5.25;0.75
65556;PMS3003;52200;53.490;14.376;2023-12-22T10:53:27;9.75;3.50;0.25
65556;PMS3003;52200;53.490;14.376;2023-12-22T10:55:52;9.00;5.50;0.00
65556;PMS3003;52200;53.490;14.376;2023-12-22T10:58:18;6.00;4.75;0.00
65556;PMS3003;52200;53.490;14.376;2023-12-22T11:00:47;10.25;7.75;1.00
65556;PMS3003;52200;53.490;14.376;2023-12-22T11:03:16;10.40;5.00;1.00
65556;PMS3003;52200;53.490;14.376;2023-12-22T11:05:44;13.80;9.20;1.80
65556;PMS3003;52200;53.490;14.376;2023-12-22T11:08:11;10.00;8.80;1.60
65556;PMS3003;52200;53.490;14.376;2023-12-22T11:10:39;15.40;11.80;2.00
65556;PMS3003;52200;53.490;14.376;2023-12-22T11:13:08;10.80;5.60;1.00
65556;PMS3003;52200;53.490;14.376;2023-12-22T11:15:35;13.60;9.60;2.00
65556;PMS3003;52200;53.490;14.376;2023-12-22T11:18:01;9.50;2.75;0.00
65556;PMS3003;52200;53.490;14.376;2023-12-22T11:20:27;10.20;6.80;0.60
65556;PMS3003;52200;53.490;14.376;2023-12-22T11:22:57;9.60;5.00;0.00
65556;PMS3003;52200;53.490;14.376;2023-12-22T11:25:24;13.80;9.20;0.20
65556;PMS3003;52200;53.490;14.376;2023-12-22T11:27:52;11.00;8.40;1.00
65556;PMS3003;52200;53.490;14.376;2023-12-22T11:30:18;14.00;13.60;3.80
65556;PMS3003;52200;53.490;14.376;2023-12-22T11:32:46;10.20;7.40;1.00
65556;PMS3003;52200;53.490;14.376;2023-12-22T11:35:14;16.80;11.40;2.00
65556;PMS3003;52200;53.490;14.376;2023-12-22T11:37:39;14.00;6.25;2.00
65556;PMS3003;52200;53.490;14.376;2023-12-22T11:40:07;12.60;5.00;0.60
65556;PMS3003;52200;53.490;14.376;2023-12-22T11:42:37;18.25;12.50;2.25
65556;PMS3003;52200;53.490;14.376;2023-12-22T11:45:12;11.20;6.40;1.00
65556;PMS3003;52200;53.490;14.376;2023-12-22T11:47:40;9.80;8.20;2.00
65556;PMS3003;52200;53.490;14.376;2023-12-22T11:50:09;16.00;9.00;3.00
65556;PMS3003;52200;53.490;14.376;2023-12-22T11:52:38;13.60;7.00;1.80
65556;PMS3003;52200;53.490;14.376;2023-12-22T11:55:07;12.00;6.20;1.00
65556;PMS3003;52200;53.490;14.376;2023-12-22T11:57:33;13.00;9.75;2.00
65556;PMS3003;52200;53.490;14.376;2023-12-22T12:00:01;12.60;7.80;1.00
65556;PMS3003;52200;53.490;14.376;2023-12-22T12:02:36;9.60;5.20;1.00
65556;PMS3003;52200;53.490;14.376;2023-12-22T12:05:03;8.00;5.20;1.00
65556;PMS3003;52200;53.490;14.376;2023-12-22T12:10:10;14.80;7.40;1.00
65556;PMS3003;52200;53.490;14.376;2023-12-22T12:13:11;9.20;5.20;0.80
65556;PMS3003;52200;53.490;14.376;2023-12-22T12:15:40;15.20;6.00;0.00
65556;PMS3003;52200;53.490;14.376;2023-12-22T12:18:07;12.40;8.60;0.80
65556;PMS3003;52200;53.490;14.376;2023-12-22T12:20:34;11.00;7.80;1.00
65556;PMS3003;52200;53.490;14.376;2023-12-22T12:23:03;6.75;5.25;0.00
65556;PMS3003;52200;53.490;14.376;2023-12-22T12:25:29;11.00;5.40;1.00
65556;PMS3003;52200;53.490;14.376;2023-12-22T12:28:05;16.80;7.40;0.80
65556;PMS3003;52200;53.490;14.376;2023-12-22T12:30:31;15.20;7.80;1.00
65556;PMS3003;52200;53.490;14.376;2023-12-22T12:33:05;10.00;4.80;0.00
65556;PMS3003;52200;53.490;14.376;2023-12-22T12:35:35;12.80;4.80;1.20
65556;PMS3003;52200;53.490;14.376;2023-12-22T12:38:00;9.00;4.60;1.00
65556;PMS3003;52200;53.490;14.376;2023-12-22T12:40:28;9.40;7.40;0.00
65556;PMS3003;52200;53.490;14.376;2023-12-22T12:42:55;9.80;3.20;1.00
65556;PMS3003;52200;53.490;14.376;2023-12-22T12:45:24;14.40;6.20;1.00
65556;PMS3003;52200;53.490;14.376;2023-12-22T12:50:26;12.20;4.60;0.80
65556;PMS3003;52200;53.490;14.376;2023-12-22T12:52:53;10.60;6.20;0.80
65556;PMS3003;52200;53.490;14.376;2023-12-22T12:55:20;12.20;5.20;1.00
65556;PMS3003;52200;53.490;14.376;2023-12-22T12:57:50;9.00;3.60;0.00
65556;PMS3003;52200;53.490;14.376;2023-12-22T13:00:17;12.00;2.80;1.00
65556;PMS3003;52200;53.490;14.376;2023-12-22T13:03:06;11.60;5.40;1.00
65556;PMS3003;52200;53.490;14.376;2023-12-22T13:05:32;14.50;5.25;1.00
65556;PMS3003;52200;53.490;14.376;2023-12-22T13:08:07;12.20;4.00;0.60
65556;PMS3003;52200;53.490;14.376;2023-12-22T13:10:37;13.20;6.00;1.00
65556;PMS3003;52200;53.490;14.376;2023-12-22T13:13:03;15.40;5.40;1.20
65556;PMS3003;52200;53.490;14.376;2023-12-22T13:15:29;9.20;2.00;0.20
65556;PMS3003;52200;53.490;14.376;2023-12-22T13:17:54;19.80;13.80;4.80
65556;PMS3003;52200;53.490;14.376;2023-12-22T13:20:20;12.40;5.20;1.00
65556;PMS3003;52200;53.490;14.376;2023-12-22T13:22:46;13.20;8.00;1.00
65556;PMS3003;52200;53.490;14.376;2023-12-22T13:25:13;18.80;5.00;1.60
65556;PMS3003;52200;53.490;14.376;2023-12-22T13:27:45;13.00;4.00;1.25
65556;PMS3003;52200;53.490;14.376;2023-12-22T13:30:12;11.40;2.00;0.60
65556;PMS3003;52200;53.490;14.376;2023-12-22T13:32:37;9.75;4.00;0.75
65556;PMS3003;52200;53.490;14.376;2023-12-22T13:35:03;9.00;3.00;1.00
65556;PMS3003;52200;53.490;14.376;2023-12-22T13:37:29;11.60;4.80;1.00
65556;PMS3003;52200;53.490;14.376;2023-12-22T13:39:55;12.00;6.00;1.00
65556;PMS3003;52200;53.490;14.376;2023-12-22T13:42:22;11.20;4.00;0.20
65556;PMS3003;52200;53.490;14.376;2023-12-22T13:44:49;18.00;4.40;0.80
65556;PMS3003;52200;53.490;14.376;2023-12-22T13:47:17;13.60;5.40;0.00
65556;PMS3003;52200;53.490;14.376;2023-12-22T13:49:43;12.60;2.00;0.80
65556;PMS3003;52200;53.490;14.376;2023-12-22T13:52:23;13.00;4.25;0.25
65556;PMS3003;52200;53.490;14.376;2023-12-22T13:55:00;6.80;1.80;0.00
65556;PMS3003;52200;53.490;14.376;2023-12-22T13:57:27;9.20;4.00;1.00
65556;PMS3003;52200;53.490;14.376;2023-12-22T13:59:52;13.00;5.00;1.00
65556;PMS3003;52200;53.490;14.376;2023-12-22T14:02:21;9.25;2.00;0.00
65556;PMS3003;52200;53.490;14.376;2023-12-22T14:04:48;11.40;4.00;0.00